sensor_id;sensor_type;location;lat;lon;timestamp;P1;durP1;ratioP1;P2;durP2;ratioP2
14592;SDS011;7383;52.354;9.756;2022-08-30T18:29:16;0.90;;;0.90;;
14592;SDS011;7383;52.354;9.756;2022-08-30T18:34:01;0.90;;;0.90;;
14592;SDS011;7383;52.354;9.756;2022-08-30T18:36:28;1.80;;;1.10;;
14592;SDS011;7383;52.354;9.756;2022-08-30T18:38:55;0.95;;;0.95;;
14592;SDS011;7383;52.354;9.756;2022-08-30T18:41:21;1.37;;;1.27;;
14592;SDS011;7383;52.354;9.756;2022-08-30T18:43:47;2.10;;;0.97;;
14592;SDS011;7383;52.354;9.756;2022-08-30T18:46:15;1.23;;;1.02;;
14592;SDS011;7383;52.354;9.756;2022-08-30T18:48:42;0.73;;;0.73;;
14592;SDS011;7383;52.354;9.756;2022-08-30T18:51:11;0.60;;;0.60;;
14592;SDS011;7383;52.354;9.756;2022-08-30T18:53:38;0.50;;;0.50;;
14592;SDS011;7383;52.354;9.756;2022-08-30T18:56:06;0.40;;;0.40;;
14592;SDS011;7383;52.354;9.756;2022-08-30T18:58:33;0.30;;;0.30;;
14592;SDS011;7383;52.354;9.756;2022-08-30T19:01:00;0.40;;;0.40;;
14592;SDS011;7383;52.354;9.756;2022-08-30T19:03:27;0.55;;;0.40;;
14592;SDS011;7383;52.354;9.756;2022-08-30T19:05:53;0.35;;;0.35;;
14592;SDS011;7383;52.354;9.756;2022-08-30T19:08:21;0.43;;;0.43;;
14592;SDS011;7383;52.354;9.756;2022-08-30T19:10:47;0.52;;;0.40;;
14592;SDS011;7383;52.354;9.756;2022-08-30T19:13:14;0.82;;;0.50;;
14592;SDS011;7383;52.354;9.756;2022-08-30T19:15:40;0.90;;;0.50;;
14592;SDS011;7383;52.354;9.756;2022-08-30T19:18:06;0.40;;;0.40;;
14592;SDS011;7383;52.354;9.756;2022-08-30T19:20:33;0.55;;;0.55;;
14592;SDS011;7383;52.354;9.756;2022-08-30T19:22:59;0.50;;;0.50;;
14592;SDS011;7383;52.354;9.756;2022-08-30T19:25:27;0.57;;;0.57;;
14592;SDS011;7383;52.354;9.756;2022-08-30T19:27:53;0.52;;;0.52;;
14592;SDS011;7383;52.354;9.756;2022-08-30T19:30:21;0.55;;;0.55;;
14592;SDS011;7383;52.354;9.756;2022-08-30T19:32:49;0.50;;;0.50;;
14592;SDS011;7383;52.354;9.756;2022-08-30T19:35:16;0.70;;;0.70;;
14592;SDS011;7383;52.354;9.756;2022-08-30T19:37:43;0.50;;;0.50;;
14592;SDS011;7383;52.354;9.756;2022-08-30T19:40:11;0.40;;;0.40;;
14592;SDS011;7383;52.354;9.756;2022-08-30T19:42:43;0.52;;;0.52;;
14592;SDS011;7383;52.354;9.756;2022-08-30T19:45:10;0.50;;;0.50;;
14592;SDS011;7383;52.354;9.756;2022-08-30T19:47:38;0.77;;;0.60;;
14592;SDS011;7383;52.354;9.756;2022-08-30T19:50:04;0.60;;;0.60;;
14592;SDS011;7383;52.354;9.756;2022-08-30T19:52:32;0.70;;;0.70;;
14592;SDS011;7383;52.354;9.756;2022-08-30T19:54:59;0.60;;;0.60;;
14592;SDS011;7383;52.354;9.756;2022-08-30T19:57:27;1.00;;;0.90;;
14592;SDS011;7383;52.354;9.756;2022-08-30T19:59:55;0.50;;;0.50;;
14592;SDS011;7383;52.354;9.756;2022-08-30T20:02:23;0.50;;;0.50;;
14592;SDS011;7383;52.354;9.756;2022-08-30T20:04:50;0.60;;;0.60;;
14592;SDS011;7383;52.354;9.756;2022-08-30T20:07:16;0.70;;;0.70;;
14592;SDS011;7383;52.354;9.756;2022-08-30T20:09:45;0.40;;;0.40;;
14592;SDS011;7383;52.354;9.756;2022-08-30T20:12:13;0.50;;;0.50;;
14592;SDS011;7383;52.354;9.756;2022-08-30T20:14:40;0.80;;;0.70;;
14592;SDS011;7383;52.354;9.756;2022-08-30T20:17:08;0.60;;;0.60;;
14592;SDS011;7383;52.354;9.756;2022-08-30T20:19:34;0.63;;;0.63;;
14592;SDS011;7383;52.354;9.756;2022-08-30T20:22:00;0.70;;;0.70;;
14592;SDS011;7383;52.354;9.756;2022-08-30T20:24:27;0.30;;;0.30;;
14592;SDS011;7383;52.354;9.756;2022-08-30T20:29:24;0.40;;;0.40;;
14592;SDS011;7383;52.354;9.756;2022-08-30T20:31:51;0.43;;;0.43;;
14592;SDS011;7383;52.354;9.756;2022-08-30T20:34:19;0.80;;;0.65;;
14592;SDS011;7383;52.354;9.756;2022-08-30T20:36:51;0.73;;;0.40;;
14592;SDS011;7383;52.354;9.756;2022-08-30T20:39:18;0.50;;;0.50;;
14592;SDS011;7383;52.354;9.756;2022-08-30T20:41:44;0.52;;;0.52;;
14592;SDS011;7383;52.354;9.756;2022-08-30T20:44:10;0.47;;;0.47;;
14592;SDS011;7383;52.354;9.756;2022-08-30T20:46:37;0.95;;;0.55;;
14592;SDS011;7383;52.354;9.756;2022-08-30T20:49:06;0.70;;;0.70;;
14592;SDS011;7383;52.354;9.756;2022-08-30T20:51:34;0.70;;;0.70;;
14592;SDS011;7383;52.354;9.756;2022-08-30T20:54:01;0.50;;;0.50;;
14592;SDS011;7383;52.354;9.756;2022-08-30T20:56:27;0.60;;;0.60;;
14592;SDS011;7383;52.354;9.756;2022-08-30T20:58:55;0.47;;;0.47;;
14592;SDS011;7383;52.354;9.756;2022-08-30T21:01:22;0.50;;;0.50;;
14592;SDS011;7383;52.354;9.756;2022-08-30T21:03:49;0.98;;;0.60;;
14592;SDS011;7383;52.354;9.756;2022-08-30T21:06:15;0.40;;;0.40;;
14592;SDS011;7383;52.354;9.756;2022-08-30T21:08:43;0.73;;;0.60;;
14592;SDS011;7383;52.354;9.756;2022-08-30T21:11:09;0.60;;;0.60;;
14592;SDS011;7383;52.354;9.756;2022-08-30T21:13:36;0.60;;;0.60;;
14592;SDS011;7383;52.354;9.756;2022-08-30T21:16:03;0.47;;;0.47;;
14592;SDS011;7383;52.354;9.756;2022-08-30T21:18:31;0.57;;;0.57;;
14592;SDS011;7383;52.354;9.756;2022-08-30T21:20:59;0.50;;;0.50;;
14592;SDS011;7383;52.354;9.756;2022-08-30T21:23:32;0.70;;;0.70;;
14592;SDS011;7383;52.354;9.756;2022-08-30T21:26:03;0.63;;;0.63;;
14592;SDS011;7383;52.354;9.756;2022-08-30T21:28:30;0.60;;;0.60;;
14592;SDS011;7383;52.354;9.756;2022-08-30T21:31:01;0.45;;;0.45;;
14592;SDS011;7383;52.354;9.756;2022-08-30T21:33:29;0.60;;;0.60;;
14592;SDS011;7383;52.354;9.756;2022-08-30T21:35:56;0.50;;;0.50;;
14592;SDS011;7383;52.354;9.756;2022-08-30T21:38:41;0.93;;;0.70;;
14592;SDS011;7383;52.354;9.756;2022-08-30T21:41:09;1.02;;;0.75;;
14592;SDS011;7383;52.354;9.756;2022-08-30T21:43:36;0.52;;;0.52;;
14592;SDS011;7383;52.354;9.756;2022-08-30T21:46:03;0.50;;;0.50;;
14592;SDS011;7383;52.354;9.756;2022-08-30T21:48:30;0.70;;;0.70;;
14592;SDS011;7383;52.354;9.756;2022-08-30T21:50:56;0.60;;;0.60;;
14592;SDS011;7383;52.354;9.756;2022-08-30T21:53:22;0.50;;;0.50;;
14592;SDS011;7383;52.354;9.756;2022-08-30T21:55:49;0.50;;;0.50;;
14592;SDS011;7383;52.354;9.756;2022-08-30T21:58:16;0.52;;;0.52;;
14592;SDS011;7383;52.354;9.756;2022-08-30T22:00:42;0.40;;;0.40;;
14592;SDS011;7383;52.354;9.756;2022-08-30T22:03:09;0.40;;;0.40;;
14592;SDS011;7383;52.354;9.756;2022-08-30T22:05:35;0.40;;;0.40;;
14592;SDS011;7383;52.354;9.756;2022-08-30T22:08:02;0.28;;;0.28;;
14592;SDS011;7383;52.354;9.756;2022-08-30T22:10:28;0.63;;;0.63;;
14592;SDS011;7383;52.354;9.756;2022-08-30T22:12:54;0.50;;;0.50;;
14592;SDS011;7383;52.354;9.756;2022-08-30T22:15:22;0.35;;;0.35;;
14592;SDS011;7383;52.354;9.756;2022-08-30T22:17:49;0.60;;;0.60;;
14592;SDS011;7383;52.354;9.756;2022-08-30T22:20:15;0.40;;;0.40;;
14592;SDS011;7383;52.354;9.756;2022-08-30T22:22:41;0.55;;;0.55;;
14592;SDS011;7383;52.354;9.756;2022-08-30T22:25:08;0.50;;;0.50;;
14592;SDS011;7383;52.354;9.756;2022-08-30T22:27:34;0.50;;;0.50;;
14592;SDS011;7383;52.354;9.756;2022-08-30T22:30:01;0.40;;;0.40;;
14592;SDS011;7383;52.354;9.756;2022-08-30T22:32:29;0.30;;;0.30;;
14592;SDS011;7383;52.354;9.756;2022-08-30T22:34:55;0.57;;;0.57;;
14592;SDS011;7383;52.354;9.756;2022-08-30T22:37:22;0.50;;;0.50;;
14592;SDS011;7383;52.354;9.756;2022-08-30T22:39:48;0.52;;;0.52;;
14592;SDS011;7383;52.354;9.756;2022-08-30T22:42:15;0.32;;;0.32;;
14592;SDS011;7383;52.354;9.756;2022-08-30T22:44:41;0.55;;;0.50;;
14592;SDS011;7383;52.354;9.756;2022-08-30T22:47:07;0.50;;;0.50;;
14592;SDS011;7383;52.354;9.756;2022-08-30T22:49:35;0.70;;;0.70;;
14592;SDS011;7383;52.354;9.756;2022-08-30T22:52:01;0.60;;;0.60;;
14592;SDS011;7383;52.354;9.756;2022-08-30T22:54:28;0.43;;;0.43;;
14592;SDS011;7383;52.354;9.756;2022-08-30T22:56:57;0.40;;;0.40;;
14592;SDS011;7383;52.354;9.756;2022-08-30T22:59:23;0.50;;;0.50;;
14592;SDS011;7383;52.354;9.756;2022-08-30T23:01:49;0.40;;;0.40;;
14592;SDS011;7383;52.354;9.756;2022-08-30T23:04:16;0.45;;;0.45;;
14592;SDS011;7383;52.354;9.756;2022-08-30T23:06:43;0.50;;;0.50;;
14592;SDS011;7383;52.354;9.756;2022-08-30T23:09:10;0.40;;;0.40;;
14592;SDS011;7383;52.354;9.756;2022-08-30T23:11:37;0.43;;;0.43;;
14592;SDS011;7383;52.354;9.756;2022-08-30T23:14:04;0.50;;;0.50;;
14592;SDS011;7383;52.354;9.756;2022-08-30T23:16:31;0.40;;;0.40;;
14592;SDS011;7383;52.354;9.756;2022-08-30T23:18:58;0.35;;;0.35;;
14592;SDS011;7383;52.354;9.756;2022-08-30T23:21:25;0.50;;;0.50;;
14592;SDS011;7383;52.354;9.756;2022-08-30T23:23:55;0.40;;;0.40;;
14592;SDS011;7383;52.354;9.756;2022-08-30T23:26:41;0.40;;;0.40;;
14592;SDS011;7383;52.354;9.756;2022-08-30T23:29:25;0.57;;;0.57;;
14592;SDS011;7383;52.354;9.756;2022-08-30T23:32:10;0.47;;;0.47;;
14592;SDS011;7383;52.354;9.756;2022-08-30T23:34:54;0.65;;;0.63;;
14592;SDS011;7383;52.354;9.756;2022-08-30T23:37:38;0.50;;;0.50;;
14592;SDS011;7383;52.354;9.756;2022-08-30T23:40:23;0.45;;;0.45;;
14592;SDS011;7383;52.354;9.756;2022-08-30T23:43:07;0.55;;;0.50;;
14592;SDS011;7383;52.354;9.756;2022-08-30T23:45:52;0.60;;;0.60;;
14592;SDS011;7383;52.354;9.756;2022-08-30T23:48:37;0.55;;;0.55;;
14592;SDS011;7383;52.354;9.756;2022-08-30T23:51:20;0.60;;;0.60;;
14592;SDS011;7383;52.354;9.756;2022-08-30T23:54:04;0.47;;;0.47;;
14592;SDS011;7383;52.354;9.756;2022-08-30T23:56:50;0.55;;;0.55;;
14592;SDS011;7383;52.354;9.756;2022-08-30T23:59:34;0.40;;;0.40;;
